sensor_id;sensor_type;location;lat;lon;timestamp;temperature;humidity
28244;DHT22;15510;52.512;13.300;2022-11-20T00:00:54;1.20;99.90
28244;DHT22;15510;52.512;13.300;2022-11-20T00:03:20;1.30;99.90
28244;DHT22;15510;52.512;13.300;2022-11-20T00:05:46;1.30;99.90
28244;DHT22;15510;52.512;13.300;2022-11-20T00:08:12;1.30;99.90
28244;DHT22;15510;52.512;13.300;2022-11-20T00:10:41;1.30;99.90
28244;DHT22;15510;52.512;13.300;2022-11-20T00:13:07;1.30;99.90
28244;DHT22;15510;52.512;13.300;2022-11-20T00:15:33;1.30;99.90
28244;DHT22;15510;52.512;13.300;2022-11-20T00:17:59;1.30;99.90
28244;DHT22;15510;52.512;13.300;2022-11-20T00:20:25;1.40;99.90
28244;DHT22;15510;52.512;13.300;2022-11-20T00:22:51;1.40;99.90
28244;DHT22;15510;52.512;13.300;2022-11-20T00:25:17;1.40;99.90
28244;DHT22;15510;52.512;13.300;2022-11-20T00:27:43;1.40;99.90
28244;DHT22;15510;52.512;13.300;2022-11-20T00:30:09;1.40;99.90
28244;DHT22;15510;52.512;13.300;2022-11-20T00:32:35;1.40;99.90
28244;DHT22;15510;52.512;13.300;2022-11-20T00:35:01;1.40;99.90
28244;DHT22;15510;52.512;13.300;2022-11-20T00:37:27;1.40;99.90
28244;DHT22;15510;52.512;13.300;2022-11-20T00:39:53;1.40;99.90
28244;DHT22;15510;52.512;13.300;2022-11-20T00:42:19;1.40;99.90
28244;DHT22;15510;52.512;13.300;2022-11-20T00:44:45;1.40;99.90
28244;DHT22;15510;52.512;13.300;2022-11-20T00:47:11;1.40;99.90
28244;DHT22;15510;52.512;13.300;2022-11-20T00:49:36;1.40;99.90
28244;DHT22;15510;52.512;13.300;2022-11-20T00:52:02;1.50;99.90
28244;DHT22;15510;52.512;13.300;2022-11-20T00:54:28;1.50;99.90
28244;DHT22;15510;52.512;13.300;2022-11-20T00:56:53;1.50;99.90
28244;DHT22;15510;52.512;13.300;2022-11-20T00:59:22;1.50;99.90
28244;DHT22;15510;52.512;13.300;2022-11-20T01:01:48;1.40;99.90
28244;DHT22;15510;52.512;13.300;2022-11-20T01:04:13;1.50;99.90
28244;DHT22;15510;52.512;13.300;2022-11-20T01:06:40;1.40;99.90
28244;DHT22;15510;52.512;13.300;2022-11-20T01:09:09;1.30;99.90
28244;DHT22;15510;52.512;13.300;2022-11-20T01:11:37;1.30;99.90
28244;DHT22;15510;52.512;13.300;2022-11-20T01:14:07;1.30;99.90
28244;DHT22;15510;52.512;13.300;2022-11-20T01:16:38;1.30;99.90
28244;DHT22;15510;52.512;13.300;2022-11-20T01:19:07;1.30;99.90
28244;DHT22;15510;52.512;13.300;2022-11-20T01:21:36;1.30;99.90
28244;DHT22;15510;52.512;13.300;2022-11-20T01:24:02;1.30;99.90
28244;DHT22;15510;52.512;13.300;2022-11-20T01:26:31;1.30;99.90
28244;DHT22;15510;52.512;13.300;2022-11-20T01:28:58;1.30;99.90
28244;DHT22;15510;52.512;13.300;2022-11-20T01:31:29;1.40;99.90
28244;DHT22;15510;52.512;13.300;2022-11-20T01:33:57;1.40;99.90
28244;DHT22;15510;52.512;13.300;2022-11-20T01:36:28;1.50;99.90
28244;DHT22;15510;52.512;13.300;2022-11-20T01:38:57;1.50;99.90
28244;DHT22;15510;52.512;13.300;2022-11-20T01:41:24;1.50;99.90
28244;DHT22;15510;52.512;13.300;2022-11-20T01:44:12;1.40;99.90
28244;DHT22;15510;52.512;13.300;2022-11-20T01:46:42;1.40;99.90
28244;DHT22;15510;52.512;13.300;2022-11-20T01:49:16;1.40;99.90
28244;DHT22;15510;52.512;13.300;2022-11-20T01:51:50;1.40;99.90
28244;DHT22;15510;52.512;13.300;2022-11-20T01:54:21;1.30;99.90
28244;DHT22;15510;52.512;13.300;2022-11-20T01:56:51;1.30;99.90
28244;DHT22;15510;52.512;13.300;2022-11-20T01:59:19;1.30;99.90
28244;DHT22;15510;52.512;13.300;2022-11-20T02:01:46;1.30;99.90
28244;DHT22;15510;52.512;13.300;2022-11-20T02:04:13;1.30;99.90
28244;DHT22;15510;52.512;13.300;2022-11-20T02:06:43;1.20;99.90
28244;DHT22;15510;52.512;13.300;2022-11-20T02:09:11;1.20;99.90
28244;DHT22;15510;52.512;13.300;2022-11-20T02:11:37;1.20;99.90
28244;DHT22;15510;52.512;13.300;2022-11-20T02:14:03;1.20;99.90
28244;DHT22;15510;52.512;13.300;2022-11-20T02:16:33;1.20;99.90
28244;DHT22;15510;52.512;13.300;2022-11-20T02:19:02;1.20;99.90
28244;DHT22;15510;52.512;13.300;2022-11-20T02:22:01;1.20;99.90
28244;DHT22;15510;52.512;13.300;2022-11-20T02:24:27;1.10;99.90
28244;DHT22;15510;52.512;13.300;2022-11-20T02:26:58;1.10;99.90
28244;DHT22;15510;52.512;13.300;2022-11-20T02:29:28;1.10;99.90
28244;DHT22;15510;52.512;13.300;2022-11-20T02:31:57;1.10;99.90
28244;DHT22;15510;52.512;13.300;2022-11-20T02:34:24;1.10;99.90
28244;DHT22;15510;52.512;13.300;2022-11-20T02:36:50;1.10;99.90
28244;DHT22;15510;52.512;13.300;2022-11-20T02:39:19;1.10;99.90
28244;DHT22;15510;52.512;13.300;2022-11-20T02:41:45;1.10;99.90
28244;DHT22;15510;52.512;13.300;2022-11-20T02:44:12;1.00;99.90
28244;DHT22;15510;52.512;13.300;2022-11-20T02:46:38;1.00;99.90
28244;DHT22;15510;52.512;13.300;2022-11-20T02:49:04;1.00;99.90
28244;DHT22;15510;52.512;13.300;2022-11-20T02:51:31;1.10;99.90
28244;DHT22;15510;52.512;13.300;2022-11-20T02:53:57;1.10;99.90
28244;DHT22;15510;52.512;13.300;2022-11-20T02:56:23;1.00;99.90
28244;DHT22;15510;52.512;13.300;2022-11-20T02:58:49;1.10;99.90
28244;DHT22;15510;52.512;13.300;2022-11-20T03:01:15;1.00;99.90
28244;DHT22;15510;52.512;13.300;2022-11-20T03:03:41;1.00;99.90
28244;DHT22;15510;52.512;13.300;2022-11-20T03:06:06;1.00;99.90
28244;DHT22;15510;52.512;13.300;2022-11-20T03:08:33;1.10;99.90
28244;DHT22;15510;52.512;13.300;2022-11-20T03:11:06;1.20;99.90
28244;DHT22;15510;52.512;13.300;2022-11-20T03:13:33;1.20;99.90
28244;DHT22;15510;52.512;13.300;2022-11-20T03:16:04;1.10;99.90
28244;DHT22;15510;52.512;13.300;2022-11-20T03:18:30;1.10;99.90
28244;DHT22;15510;52.512;13.300;2022-11-20T03:20:59;1.20;99.90
28244;DHT22;15510;52.512;13.300;2022-11-20T03:23:25;1.20;99.90
28244;DHT22;15510;52.512;13.300;2022-11-20T03:25:51;1.20;99.90
28244;DHT22;15510;52.512;13.300;2022-11-20T03:28:16;1.30;99.90
28244;DHT22;15510;52.512;13.300;2022-11-20T03:30:42;1.30;99.90
28244;DHT22;15510;52.512;13.300;2022-11-20T03:33:07;1.30;99.90
28244;DHT22;15510;52.512;13.300;2022-11-20T03:35:33;1.40;99.90
28244;DHT22;15510;52.512;13.300;2022-11-20T03:37:59;1.40;99.90
28244;DHT22;15510;52.512;13.300;2022-11-20T03:40:24;1.40;99.90
28244;DHT22;15510;52.512;13.300;2022-11-20T03:42:50;1.40;99.90
28244;DHT22;15510;52.512;13.300;2022-11-20T03:45:17;1.50;99.90
28244;DHT22;15510;52.512;13.300;2022-11-20T03:47:43;1.50;99.90
28244;DHT22;15510;52.512;13.300;2022-11-20T03:50:11;1.40;99.90
28244;DHT22;15510;52.512;13.300;2022-11-20T03:52:38;1.40;99.90
28244;DHT22;15510;52.512;13.300;2022-11-20T03:55:05;1.40;99.90
28244;DHT22;15510;52.512;13.300;2022-11-20T03:57:31;1.30;99.90
28244;DHT22;15510;52.512;13.300;2022-11-20T03:59:57;1.20;99.90
28244;DHT22;15510;52.512;13.300;2022-11-20T04:02:22;1.20;99.90
28244;DHT22;15510;52.512;13.300;2022-11-20T04:04:48;1.10;99.90
28244;DHT22;15510;52.512;13.300;2022-11-20T04:07:14;1.00;99.90
28244;DHT22;15510;52.512;13.300;2022-11-20T04:09:39;1.00;99.90
28244;DHT22;15510;52.512;13.300;2022-11-20T04:12:05;0.90;99.90
28244;DHT22;15510;52.512;13.300;2022-11-20T04:14:31;0.90;99.90
28244;DHT22;15510;52.512;13.300;2022-11-20T04:16:56;0.90;99.90
28244;DHT22;15510;52.512;13.300;2022-11-20T04:19:22;0.90;99.90
28244;DHT22;15510;52.512;13.300;2022-11-20T04:21:48;0.90;99.90
28244;DHT22;15510;52.512;13.300;2022-11-20T04:24:13;0.90;99.90
28244;DHT22;15510;52.512;13.300;2022-11-20T04:26:40;0.90;99.90
28244;DHT22;15510;52.512;13.300;2022-11-20T04:29:06;0.90;99.90
28244;DHT22;15510;52.512;13.300;2022-11-20T04:31:33;0.90;99.90
28244;DHT22;15510;52.512;13.300;2022-11-20T04:34:04;0.90;99.90
28244;DHT22;15510;52.512;13.300;2022-11-20T04:36:31;1.00;99.90
28244;DHT22;15510;52.512;13.300;2022-11-20T04:39:01;1.00;99.90
28244;DHT22;15510;52.512;13.300;2022-11-20T04:41:30;1.00;99.90
28244;DHT22;15510;52.512;13.300;2022-11-20T04:43:57;1.10;99.90
28244;DHT22;15510;52.512;13.300;2022-11-20T04:46:30;1.10;99.90
28244;DHT22;15510;52.512;13.300;2022-11-20T04:48:56;1.10;99.90
28244;DHT22;15510;52.512;13.300;2022-11-20T04:51:22;1.00;99.90
28244;DHT22;15510;52.512;13.300;2022-11-20T04:53:48;1.00;99.90
28244;DHT22;15510;52.512;13.300;2022-11-20T04:56:14;1.00;99.90
28244;DHT22;15510;52.512;13.300;2022-11-20T04:58:40;1.00;99.90
28244;DHT22;15510;52.512;13.300;2022-11-20T05:01:09;1.00;99.90
28244;DHT22;15510;52.512;13.300;2022-11-20T05:03:35;1.00;99.90
28244;DHT22;15510;52.512;13.300;2022-11-20T05:06:02;1.10;99.90
28244;DHT22;15510;52.512;13.300;2022-11-20T05:08:29;1.10;99.90
28244;DHT22;15510;52.512;13.300;2022-11-20T05:11:06;1.10;99.90
28244;DHT22;15510;52.512;13.300;2022-11-20T05:13:32;1.10;99.90
28244;DHT22;15510;52.512;13.300;2022-11-20T05:16:02;1.10;99.90
28244;DHT22;15510;52.512;13.300;2022-11-20T05:18:28;1.20;99.90
28244;DHT22;15510;52.512;13.300;2022-11-20T05:20:57;1.20;99.90
28244;DHT22;15510;52.512;13.300;2022-11-20T05:23:24;1.20;99.90
28244;DHT22;15510;52.512;13.300;2022-11-20T05:25:53;1.20;99.90
28244;DHT22;15510;52.512;13.300;2022-11-20T05:28:19;1.20;99.90
28244;DHT22;15510;52.512;13.300;2022-11-20T05:30:45;1.20;99.90
28244;DHT22;15510;52.512;13.300;2022-11-20T05:33:11;1.20;99.90
28244;DHT22;15510;52.512;13.300;2022-11-20T05:35:36;1.20;99.90
28244;DHT22;15510;52.512;13.300;2022-11-20T05:38:02;1.20;99.90
28244;DHT22;15510;52.512;13.300;2022-11-20T05:40:28;1.20;99.90
28244;DHT22;15510;52.512;13.300;2022-11-20T05:42:53;1.30;99.90
28244;DHT22;15510;52.512;13.300;2022-11-20T05:45:19;1.30;99.90
28244;DHT22;15510;52.512;13.300;2022-11-20T05:47:45;1.30;99.90
28244;DHT22;15510;52.512;13.300;2022-11-20T05:50:10;1.30;99.90
28244;DHT22;15510;52.512;13.300;2022-11-20T05:52:36;1.30;99.90
28244;DHT22;15510;52.512;13.300;2022-11-20T05:55:02;1.30;99.90
28244;DHT22;15510;52.512;13.300;2022-11-20T05:57:28;1.30;99.90
28244;DHT22;15510;52.512;13.300;2022-11-20T05:59:53;1.30;99.90
28244;DHT22;15510;52.512;13.300;2022-11-20T06:02:19;1.30;99.90
28244;DHT22;15510;52.512;13.300;2022-11-20T06:04:45;1.30;99.90
28244;DHT22;15510;52.512;13.300;2022-11-20T06:07:10;1.30;99.90
28244;DHT22;15510;52.512;13.300;2022-11-20T06:09:36;1.30;99.90
28244;DHT22;15510;52.512;13.300;2022-11-20T06:12:02;1.40;99.90
28244;DHT22;15510;52.512;13.300;2022-11-20T06:14:28;1.30;99.90
28244;DHT22;15510;52.512;13.300;2022-11-20T06:16:53;1.30;99.90
28244;DHT22;15510;52.512;13.300;2022-11-20T06:19:19;1.30;99.90
28244;DHT22;15510;52.512;13.300;2022-11-20T06:21:45;1.40;99.90
28244;DHT22;15510;52.512;13.300;2022-11-20T06:24:12;1.40;99.90
28244;DHT22;15510;52.512;13.300;2022-11-20T06:26:38;1.40;99.90
28244;DHT22;15510;52.512;13.300;2022-11-20T06:29:04;1.40;99.90
28244;DHT22;15510;52.512;13.300;2022-11-20T06:31:30;1.40;99.90
28244;DHT22;15510;52.512;13.300;2022-11-20T06:33:58;1.40;99.90
28244;DHT22;15510;52.512;13.300;2022-11-20T06:36:24;1.40;99.90
28244;DHT22;15510;52.512;13.300;2022-11-20T06:38:49;1.40;99.90
28244;DHT22;15510;52.512;13.300;2022-11-20T06:41:17;1.40;99.90
28244;DHT22;15510;52.512;13.300;2022-11-20T06:43:43;1.40;99.90
28244;DHT22;15510;52.512;13.300;2022-11-20T06:46:11;1.40;99.90
28244;DHT22;15510;52.512;13.300;2022-11-20T06:48:36;1.40;99.90
28244;DHT22;15510;52.512;13.300;2022-11-20T06:51:04;1.30;99.90
28244;DHT22;15510;52.512;13.300;2022-11-20T06:53:29;1.30;99.90
28244;DHT22;15510;52.512;13.300;2022-11-20T06:55:56;1.30;99.90
28244;DHT22;15510;52.512;13.300;2022-11-20T06:58:23;1.20;99.90
28244;DHT22;15510;52.512;13.300;2022-11-20T07:00:51;1.20;99.90
28244;DHT22;15510;52.512;13.300;2022-11-20T07:03:17;1.20;99.90
28244;DHT22;15510;52.512;13.300;2022-11-20T07:05:42;1.20;99.90
28244;DHT22;15510;52.512;13.300;2022-11-20T07:08:09;1.20;99.90
28244;DHT22;15510;52.512;13.300;2022-11-20T07:10:35;1.20;99.90
28244;DHT22;15510;52.512;13.300;2022-11-20T07:13:00;1.20;99.90
28244;DHT22;15510;52.512;13.300;2022-11-20T07:15:26;1.20;99.90
28244;DHT22;15510;52.512;13.300;2022-11-20T07:17:52;1.20;99.90
28244;DHT22;15510;52.512;13.300;2022-11-20T07:20:18;1.20;99.90
28244;DHT22;15510;52.512;13.300;2022-11-20T07:22:43;1.20;99.90
28244;DHT22;15510;52.512;13.300;2022-11-20T07:25:10;1.20;99.90
28244;DHT22;15510;52.512;13.300;2022-11-20T07:27:35;1.20;99.90
28244;DHT22;15510;52.512;13.300;2022-11-20T07:30:02;1.10;99.90
28244;DHT22;15510;52.512;13.300;2022-11-20T07:32:28;1.10;99.90
28244;DHT22;15510;52.512;13.300;2022-11-20T07:34:54;1.20;99.90
28244;DHT22;15510;52.512;13.300;2022-11-20T07:37:19;1.10;99.90
28244;DHT22;15510;52.512;13.300;2022-11-20T07:39:45;1.20;99.90
28244;DHT22;15510;52.512;13.300;2022-11-20T07:42:11;1.20;99.90
28244;DHT22;15510;52.512;13.300;2022-11-20T07:44:38;1.20;99.90
28244;DHT22;15510;52.512;13.300;2022-11-20T07:47:04;1.30;99.90
28244;DHT22;15510;52.512;13.300;2022-11-20T07:49:30;1.30;99.90
28244;DHT22;15510;52.512;13.300;2022-11-20T07:51:56;1.30;99.90
28244;DHT22;15510;52.512;13.300;2022-11-20T07:54:22;1.30;99.90
28244;DHT22;15510;52.512;13.300;2022-11-20T07:56:49;1.20;99.90
28244;DHT22;15510;52.512;13.300;2022-11-20T07:59:15;1.20;99.90
28244;DHT22;15510;52.512;13.300;2022-11-20T08:01:43;1.30;99.90
28244;DHT22;15510;52.512;13.300;2022-11-20T08:04:09;1.30;99.90
28244;DHT22;15510;52.512;13.300;2022-11-20T08:06:36;1.30;99.90
28244;DHT22;15510;52.512;13.300;2022-11-20T08:09:02;1.30;99.90
28244;DHT22;15510;52.512;13.300;2022-11-20T08:11:28;1.30;99.90
28244;DHT22;15510;52.512;13.300;2022-11-20T08:14:13;1.30;99.90
28244;DHT22;15510;52.512;13.300;2022-11-20T08:16:48;1.30;99.90
28244;DHT22;15510;52.512;13.300;2022-11-20T08:19:17;1.30;99.90
28244;DHT22;15510;52.512;13.300;2022-11-20T08:21:44;1.30;99.90
28244;DHT22;15510;52.512;13.300;2022-11-20T08:24:11;1.40;99.90
28244;DHT22;15510;52.512;13.300;2022-11-20T08:26:37;1.40;99.90
28244;DHT22;15510;52.512;13.300;2022-11-20T08:29:04;1.40;99.90
28244;DHT22;15510;52.512;13.300;2022-11-20T08:31:30;1.40;99.90
28244;DHT22;15510;52.512;13.300;2022-11-20T08:33:56;1.50;99.90
28244;DHT22;15510;52.512;13.300;2022-11-20T08:36:22;1.40;99.90
28244;DHT22;15510;52.512;13.300;2022-11-20T08:38:53;1.40;99.90
28244;DHT22;15510;52.512;13.300;2022-11-20T08:41:20;1.30;99.90
28244;DHT22;15510;52.512;13.300;2022-11-20T08:43:49;1.30;99.90
28244;DHT22;15510;52.512;13.300;2022-11-20T08:46:16;1.30;99.90
28244;DHT22;15510;52.512;13.300;2022-11-20T08:48:42;1.30;99.90
28244;DHT22;15510;52.512;13.300;2022-11-20T08:51:08;1.30;99.90
28244;DHT22;15510;52.512;13.300;2022-11-20T08:53:33;1.30;99.90
28244;DHT22;15510;52.512;13.300;2022-11-20T08:55:59;1.30;99.90
28244;DHT22;15510;52.512;13.300;2022-11-20T08:58:26;1.40;99.90
28244;DHT22;15510;52.512;13.300;2022-11-20T09:00:52;1.40;99.90
28244;DHT22;15510;52.512;13.300;2022-11-20T09:03:18;1.50;99.90
28244;DHT22;15510;52.512;13.300;2022-11-20T09:05:43;1.50;99.90
28244;DHT22;15510;52.512;13.300;2022-11-20T09:08:09;1.60;99.90
28244;DHT22;15510;52.512;13.300;2022-11-20T09:10:35;1.50;99.90
28244;DHT22;15510;52.512;13.300;2022-11-20T09:13:02;1.50;99.90
28244;DHT22;15510;52.512;13.300;2022-11-20T09:15:28;1.50;99.90
28244;DHT22;15510;52.512;13.300;2022-11-20T09:17:59;1.50;99.90
28244;DHT22;15510;52.512;13.300;2022-11-20T09:20:26;1.60;99.90
28244;DHT22;15510;52.512;13.300;2022-11-20T09:22:54;1.60;99.90
28244;DHT22;15510;52.512;13.300;2022-11-20T09:25:20;1.60;99.90
28244;DHT22;15510;52.512;13.300;2022-11-20T09:27:46;1.70;99.90
28244;DHT22;15510;52.512;13.300;2022-11-20T09:30:13;1.60;99.90
28244;DHT22;15510;52.512;13.300;2022-11-20T09:32:39;1.60;99.90
28244;DHT22;15510;52.512;13.300;2022-11-20T09:35:05;1.60;99.90
28244;DHT22;15510;52.512;13.300;2022-11-20T09:37:31;1.70;99.90
28244;DHT22;15510;52.512;13.300;2022-11-20T09:39:56;1.80;99.90
28244;DHT22;15510;52.512;13.300;2022-11-20T09:42:40;1.80;99.90
28244;DHT22;15510;52.512;13.300;2022-11-20T09:45:37;1.90;99.90
28244;DHT22;15510;52.512;13.300;2022-11-20T09:50:51;2.00;99.90
28244;DHT22;15510;52.512;13.300;2022-11-20T09:53:40;2.00;99.90
28244;DHT22;15510;52.512;13.300;2022-11-20T09:56:11;2.00;99.90
28244;DHT22;15510;52.512;13.300;2022-11-20T09:58:41;2.00;99.90
28244;DHT22;15510;52.512;13.300;2022-11-20T10:01:18;2.10;99.90
28244;DHT22;15510;52.512;13.300;2022-11-20T10:03:52;2.10;99.90
28244;DHT22;15510;52.512;13.300;2022-11-20T10:06:40;2.10;99.90
28244;DHT22;15510;52.512;13.300;2022-11-20T10:17:26;2.00;99.90
28244;DHT22;15510;52.512;13.300;2022-11-20T10:20:10;2.00;99.90
28244;DHT22;15510;52.512;13.300;2022-11-20T10:25:38;2.10;99.90
28244;DHT22;15510;52.512;13.300;2022-11-20T10:31:11;2.20;99.90
28244;DHT22;15510;52.512;13.300;2022-11-20T10:33:44;2.20;99.90
28244;DHT22;15510;52.512;13.300;2022-11-20T10:36:16;2.20;99.90
28244;DHT22;15510;52.512;13.300;2022-11-20T10:38:48;2.30;99.90
28244;DHT22;15510;52.512;13.300;2022-11-20T10:41:21;2.30;99.90
28244;DHT22;15510;52.512;13.300;2022-11-20T10:43:58;2.30;99.90
28244;DHT22;15510;52.512;13.300;2022-11-20T10:46:32;2.40;99.90
28244;DHT22;15510;52.512;13.300;2022-11-20T10:48:59;2.50;99.90
28244;DHT22;15510;52.512;13.300;2022-11-20T10:51:40;2.50;99.90
28244;DHT22;15510;52.512;13.300;2022-11-20T10:56:51;2.40;99.90
28244;DHT22;15510;52.512;13.300;2022-11-20T11:01:54;2.60;99.90
28244;DHT22;15510;52.512;13.300;2022-11-20T11:04:44;2.60;99.90
28244;DHT22;15510;52.512;13.300;2022-11-20T11:07:35;2.80;99.90
28244;DHT22;15510;52.512;13.300;2022-11-20T11:10:05;3.00;99.90
28244;DHT22;15510;52.512;13.300;2022-11-20T11:12:43;3.20;99.90
28244;DHT22;15510;52.512;13.300;2022-11-20T11:15:14;3.20;99.90
28244;DHT22;15510;52.512;13.300;2022-11-20T11:17:46;3.30;99.90
28244;DHT22;15510;52.512;13.300;2022-11-20T11:20:17;3.20;99.90
28244;DHT22;15510;52.512;13.300;2022-11-20T11:22:52;3.20;99.90
28244;DHT22;15510;52.512;13.300;2022-11-20T11:25:40;3.30;99.90
28244;DHT22;15510;52.512;13.300;2022-11-20T11:28:21;3.30;99.90
28244;DHT22;15510;52.512;13.300;2022-11-20T11:30:47;3.20;99.90
28244;DHT22;15510;52.512;13.300;2022-11-20T11:33:24;3.30;99.90
28244;DHT22;15510;52.512;13.300;2022-11-20T11:35:55;3.40;99.90
28244;DHT22;15510;52.512;13.300;2022-11-20T11:38:32;3.40;99.90
28244;DHT22;15510;52.512;13.300;2022-11-20T11:40:59;3.30;99.90
28244;DHT22;15510;52.512;13.300;2022-11-20T11:43:29;3.20;99.90
28244;DHT22;15510;52.512;13.300;2022-11-20T11:46:24;3.10;99.90
28244;DHT22;15510;52.512;13.300;2022-11-20T11:52:13;2.70;99.90
28244;DHT22;15510;52.512;13.300;2022-11-20T11:54:53;2.60;99.90
28244;DHT22;15510;52.512;13.300;2022-11-20T11:57:24;2.50;99.90
28244;DHT22;15510;52.512;13.300;2022-11-20T12:00:00;2.50;99.90
28244;DHT22;15510;52.512;13.300;2022-11-20T12:13:37;2.80;99.90
28244;DHT22;15510;52.512;13.300;2022-11-20T12:16:07;2.80;99.90
28244;DHT22;15510;52.512;13.300;2022-11-20T12:18:36;2.90;99.90
28244;DHT22;15510;52.512;13.300;2022-11-20T12:26:19;3.00;99.90
28244;DHT22;15510;52.512;13.300;2022-11-20T12:32:13;3.00;99.90
28244;DHT22;15510;52.512;13.300;2022-11-20T12:37:52;3.10;99.90
28244;DHT22;15510;52.512;13.300;2022-11-20T12:43:32;2.80;99.90
28244;DHT22;15510;52.512;13.300;2022-11-20T12:49:02;2.70;99.90
28244;DHT22;15510;52.512;13.300;2022-11-20T12:51:51;2.60;99.90
28244;DHT22;15510;52.512;13.300;2022-11-20T12:54:28;2.60;99.90
28244;DHT22;15510;52.512;13.300;2022-11-20T13:08:41;2.60;99.90
28244;DHT22;15510;52.512;13.300;2022-11-20T13:16:54;2.60;99.90
28244;DHT22;15510;52.512;13.300;2022-11-20T13:19:22;2.70;99.90
28244;DHT22;15510;52.512;13.300;2022-11-20T13:21:49;2.70;99.90
28244;DHT22;15510;52.512;13.300;2022-11-20T13:26:44;2.70;99.90
28244;DHT22;15510;52.512;13.300;2022-11-20T13:29:18;2.80;99.90
28244;DHT22;15510;52.512;13.300;2022-11-20T13:31:46;2.90;99.90
28244;DHT22;15510;52.512;13.300;2022-11-20T13:34:26;2.90;99.90
28244;DHT22;15510;52.512;13.300;2022-11-20T13:36:54;2.80;99.90
28244;DHT22;15510;52.512;13.300;2022-11-20T13:39:28;2.80;99.90
28244;DHT22;15510;52.512;13.300;2022-11-20T13:41:56;2.90;99.90
28244;DHT22;15510;52.512;13.300;2022-11-20T13:44:39;2.90;99.90
28244;DHT22;15510;52.512;13.300;2022-11-20T13:47:25;2.90;99.90
28244;DHT22;15510;52.512;13.300;2022-11-20T13:49:52;2.90;99.90
28244;DHT22;15510;52.512;13.300;2022-11-20T13:52:33;2.90;99.90
28244;DHT22;15510;52.512;13.300;2022-11-20T14:00:19;2.90;99.90
28244;DHT22;15510;52.512;13.300;2022-11-20T14:05:39;2.90;99.90
28244;DHT22;15510;52.512;13.300;2022-11-20T14:08:13;2.80;99.90
28244;DHT22;15510;52.512;13.300;2022-11-20T14:10:39;2.70;99.90
28244;DHT22;15510;52.512;13.300;2022-11-20T14:13:20;2.70;99.90
28244;DHT22;15510;52.512;13.300;2022-11-20T14:15:46;2.70;99.90
28244;DHT22;15510;52.512;13.300;2022-11-20T14:18:20;2.70;99.90
28244;DHT22;15510;52.512;13.300;2022-11-20T14:20:47;2.70;99.90
28244;DHT22;15510;52.512;13.300;2022-11-20T14:23:27;2.60;99.90
28244;DHT22;15510;52.512;13.300;2022-11-20T14:25:53;2.60;99.90
28244;DHT22;15510;52.512;13.300;2022-11-20T14:28:26;2.70;99.90
28244;DHT22;15510;52.512;13.300;2022-11-20T14:30:52;2.80;99.90
28244;DHT22;15510;52.512;13.300;2022-11-20T14:33:18;2.80;99.90
28244;DHT22;15510;52.512;13.300;2022-11-20T14:35:49;2.80;99.90
28244;DHT22;15510;52.512;13.300;2022-11-20T14:38:18;2.70;99.90
28244;DHT22;15510;52.512;13.300;2022-11-20T14:40:45;2.80;99.90
28244;DHT22;15510;52.512;13.300;2022-11-20T14:43:26;2.80;99.90
28244;DHT22;15510;52.512;13.300;2022-11-20T14:46:05;2.70;99.90
28244;DHT22;15510;52.512;13.300;2022-11-20T14:48:55;2.60;99.90
28244;DHT22;15510;52.512;13.300;2022-11-20T14:54:18;2.60;99.90
28244;DHT22;15510;52.512;13.300;2022-11-20T14:56:57;2.60;99.90
28244;DHT22;15510;52.512;13.300;2022-11-20T14:59:28;2.50;99.90
28244;DHT22;15510;52.512;13.300;2022-11-20T15:02:10;2.40;99.90
28244;DHT22;15510;52.512;13.300;2022-11-20T15:04:57;2.40;99.90
28244;DHT22;15510;52.512;13.300;2022-11-20T15:07:48;2.40;99.90
28244;DHT22;15510;52.512;13.300;2022-11-20T15:10:22;2.40;99.90
28244;DHT22;15510;52.512;13.300;2022-11-20T15:13:05;2.30;99.90
28244;DHT22;15510;52.512;13.300;2022-11-20T15:15:48;2.30;99.90
28244;DHT22;15510;52.512;13.300;2022-11-20T15:18:23;2.30;99.90
28244;DHT22;15510;52.512;13.300;2022-11-20T15:20:50;2.20;99.90
28244;DHT22;15510;52.512;13.300;2022-11-20T15:23:17;2.20;99.90
28244;DHT22;15510;52.512;13.300;2022-11-20T15:25:47;2.20;99.90
28244;DHT22;15510;52.512;13.300;2022-11-20T15:28:21;2.20;99.90
28244;DHT22;15510;52.512;13.300;2022-11-20T15:30:48;2.20;99.90
28244;DHT22;15510;52.512;13.300;2022-11-20T15:33:15;2.20;99.90
28244;DHT22;15510;52.512;13.300;2022-11-20T15:35:41;2.30;99.90
28244;DHT22;15510;52.512;13.300;2022-11-20T15:38:07;2.30;99.90
28244;DHT22;15510;52.512;13.300;2022-11-20T15:40:32;2.40;99.90
28244;DHT22;15510;52.512;13.300;2022-11-20T15:42:58;2.40;99.90
28244;DHT22;15510;52.512;13.300;2022-11-20T15:48:14;2.30;99.90
28244;DHT22;15510;52.512;13.300;2022-11-20T15:53:24;2.20;99.90
28244;DHT22;15510;52.512;13.300;2022-11-20T15:55:50;2.10;99.90
28244;DHT22;15510;52.512;13.300;2022-11-20T15:58:15;2.10;99.90
28244;DHT22;15510;52.512;13.300;2022-11-20T16:00:43;2.00;99.90
28244;DHT22;15510;52.512;13.300;2022-11-20T16:03:12;1.90;99.90
28244;DHT22;15510;52.512;13.300;2022-11-20T16:05:38;1.80;99.90
28244;DHT22;15510;52.512;13.300;2022-11-20T16:08:04;1.70;99.90
28244;DHT22;15510;52.512;13.300;2022-11-20T16:10:30;1.60;99.90
28244;DHT22;15510;52.512;13.300;2022-11-20T16:12:56;1.50;99.90
28244;DHT22;15510;52.512;13.300;2022-11-20T16:15:40;1.50;99.90
28244;DHT22;15510;52.512;13.300;2022-11-20T16:18:21;1.40;99.90
28244;DHT22;15510;52.512;13.300;2022-11-20T16:20:50;1.40;99.90
28244;DHT22;15510;52.512;13.300;2022-11-20T16:23:16;1.30;99.90
28244;DHT22;15510;52.512;13.300;2022-11-20T16:25:43;1.30;99.90
28244;DHT22;15510;52.512;13.300;2022-11-20T16:28:09;1.30;99.90
28244;DHT22;15510;52.512;13.300;2022-11-20T16:30:35;1.30;99.90
28244;DHT22;15510;52.512;13.300;2022-11-20T16:33:02;1.20;99.90
28244;DHT22;15510;52.512;13.300;2022-11-20T16:35:29;1.20;99.90
28244;DHT22;15510;52.512;13.300;2022-11-20T16:37:56;1.10;99.90
28244;DHT22;15510;52.512;13.300;2022-11-20T16:40:22;1.10;99.90
28244;DHT22;15510;52.512;13.300;2022-11-20T16:42:48;1.10;99.90
28244;DHT22;15510;52.512;13.300;2022-11-20T16:45:14;1.10;99.90
28244;DHT22;15510;52.512;13.300;2022-11-20T16:47:40;1.00;99.90
28244;DHT22;15510;52.512;13.300;2022-11-20T16:50:06;1.00;99.90
28244;DHT22;15510;52.512;13.300;2022-11-20T16:52:32;1.00;99.90
28244;DHT22;15510;52.512;13.300;2022-11-20T16:54:58;1.00;99.90
28244;DHT22;15510;52.512;13.300;2022-11-20T16:57:26;0.90;99.90
28244;DHT22;15510;52.512;13.300;2022-11-20T16:59:52;0.90;99.90
28244;DHT22;15510;52.512;13.300;2022-11-20T17:02:18;0.90;99.90
28244;DHT22;15510;52.512;13.300;2022-11-20T17:04:44;0.90;99.90
28244;DHT22;15510;52.512;13.300;2022-11-20T17:07:10;0.90;99.90
28244;DHT22;15510;52.512;13.300;2022-11-20T17:09:37;1.00;99.90
28244;DHT22;15510;52.512;13.300;2022-11-20T17:12:03;0.90;99.90